This is the latest recevied weather packets stored in our database for station/object BV3BA-13. If no packets are shown the sender has not sent any weather packets the latest 10 day(s).
| Time | Temp. | Humidity | Pressure | Rain* | Wind** | Luminosity | Snow |
|---|---|---|---|---|---|---|---|
| 1777764424 | 26.67° C | 78% | 1005.9 hPa | 0 mm | - | - | - |
| 1777760823 | 23.33° C | 88% | 1005.3 hPa | 0 mm | - | - | - |
| 1777759625 | 22.78° C | 88% | 1005.3 hPa | 0 mm | - | - | - |
| 1777757824 | 22.78° C | 89% | 1005.1 hPa | 0 mm | - | - | - |
| 1777757224 | 22.78° C | 90% | 1005 hPa | 0 mm | - | - | - |
| 1777754824 | 22.78° C | 89% | 1005.1 hPa | 0 mm | - | - | - |
| 1777754224 | 22.78° C | 89% | 1005.2 hPa | 0 mm | - | - | - |
| 1777752423 | 22.78° C | 89% | 1005.4 hPa | 0 mm | - | - | - |
| 1777751223 | 22.78° C | 88% | 1005.4 hPa | 0 mm | - | - | - |
| 1777750624 | 22.22° C | 90% | 1005.4 hPa | 0 mm | - | - | - |
| 1777747623 | 22.78° C | 89% | 1005.9 hPa | 0 mm | - | - | - |
| 1777747024 | 22.78° C | 89% | 1006 hPa | 0 mm | - | - | - |
| 1777746424 | 22.78° C | 88% | 1006 hPa | 0 mm | - | - | - |
| 1777745224 | 22.78° C | 88% | 1006.4 hPa | 0 mm | - | - | - |
| 1777744623 | 22.78° C | 88% | 1006.5 hPa | 0 mm | - | - | - |
| 1777743424 | 22.78° C | 89% | 1006.8 hPa | 0 mm | - | - | - |
| 1777742824 | 22.78° C | 89% | 1006.8 hPa | 0 mm | - | - | - |
| 1777741624 | 23.33° C | 89% | 1006.9 hPa | 0 mm | - | - | - |
| 1777741023 | 23.33° C | 88% | 1006.9 hPa | 0 mm | - | - | - |
| 1777739823 | 23.33° C | 87% | 1007.1 hPa | 0 mm | - | - | - |
| 1777739224 | 23.33° C | 87% | 1007.3 hPa | 0 mm | - | - | - |
| 1777738624 | 23.33° C | 84% | 1007.3 hPa | 0 mm | - | - | - |
| 1777738023 | 23.89° C | 82% | 1007.5 hPa | 0 mm | - | - | - |
| 1777736223 | 23.89° C | 85% | 1007.8 hPa | 0 mm | - | - | - |
| 1777735624 | 23.89° C | 85% | 1008 hPa | 0 mm | - | - | - |
* Rain latest hour (hover to see other rain measurements)
** Current wind speed in m/s (hover to see current wind gust speed)